Time;durP1;ratioP1;P1;durP2;ratioP2;P2;SDS_P1;SDS_P2;PMS_P1;PMS_P2;Temp;Humidity;BMP_temperature;BMP_pressure;BME280_temperature;BME280_humidity;BME280_pressure;Samples;Min_cycle;Max_cycle;Signal;HPM_P1;HPM_P2
2020/12/16 00:01:02;;;;;;;;;;;;;;;19.70;40.07;101790.69;5097532;28;866;-54
2020/12/16 00:03:27;;;;;;;;;;;;;;;19.78;40.23;101788.25;5098081;28;767;-55
2020/12/16 00:05:52;;;;;;;;;;;;;;;20.50;38.47;101790.38;5097276;28;1016;-55
2020/12/16 00:08:18;;;;;;;;;;;;;;;20.38;38.61;101795.31;5097840;28;735;-54
2020/12/16 00:10:43;;;;;;;;;;;;;;;20.21;39.23;101792.81;5097869;28;835;-54
2020/12/16 00:13:10;;;;;;;;;;;;;;;19.75;39.92;101797.06;5097378;28;799;-46
2020/12/16 00:15:37;;;;;;;;;;;;;;;19.27;41.16;101804.56;5097339;28;763;-53
2020/12/16 00:18:02;;;;;;;;;;;;;;;19.97;39.68;101812.63;5097394;28;1905;-55
2020/12/16 00:20:27;;;;;;;;;;;;;;;20.53;38.54;101809.16;5096983;28;1165;-51
2020/12/16 00:22:53;;;;;;;;;;;;;;;20.13;39.34;101811.59;5097339;28;747;-54
2020/12/16 00:25:18;;;;;;;;;;;;;;;20.06;39.36;101822.03;5097326;28;763;-54
2020/12/16 00:27:44;;;;;;;;;;;;;;;19.47;40.59;101823.16;5097116;28;818;-53
2020/12/16 00:30:09;;;;;;;;;;;;;;;19.85;39.94;101818.38;5102773;28;1369;-54
2020/12/16 00:32:35;;;;;;;;;;;;;;;20.64;38.21;101815.50;5117416;28;835;-53
2020/12/16 00:35:00;;;;;;;;;;;;;;;20.09;39.48;101821.50;5113485;28;952;-54
2020/12/16 00:37:26;;;;;;;;;;;;;;;20.10;39.09;101823.16;5097185;28;2005;-53
2020/12/16 00:39:51;;;;;;;;;;;;;;;19.51;40.66;101817.94;5097232;28;727;-53
2020/12/16 00:42:17;;;;;;;;;;;;;;;19.52;40.68;101833.38;5096986;28;739;-54
2020/12/16 00:44:42;;;;;;;;;;;;;;;20.48;38.53;101817.41;5097041;28;778;-55
2020/12/16 00:47:07;;;;;;;;;;;;;;;20.28;39.01;101810.75;5095926;28;1377;-54
2020/12/16 00:49:33;;;;;;;;;;;;;;;20.16;39.09;101821.22;5096806;28;787;-54
2020/12/16 00:51:59;;;;;;;;;;;;;;;19.64;40.37;101815.53;5095646;28;1200;-55
2020/12/16 00:54:24;;;;;;;;;;;;;;;19.01;41.99;101815.41;5095182;28;1975;-55
2020/12/16 00:56:50;;;;;;;;;;;;;;;20.20;39.28;101821.53;5095399;28;1921;-52
2020/12/16 00:59:15;;;;;;;;;;;;;;;20.50;38.48;101815.22;5096818;28;751;-54
2020/12/16 01:01:42;;;;;;;;;;;;;;;20.17;39.26;101809.94;5095385;28;1370;-54
2020/12/16 01:04:07;;;;;;;;;;;;;;;19.87;39.65;101807.91;5095667;28;1097;-54
2020/12/16 01:06:35;;;;;;;;;;;;;;;19.47;40.66;101815.72;5095348;28;1109;-54
2020/12/16 01:09:01;;;;;;;;;;;;;;;19.16;41.38;101820.22;5094881;28;786;-54
2020/12/16 01:11:27;;;;;;;;;;;;;;;20.23;39.01;101809.94;5095688;28;1116;-54
2020/12/16 01:13:52;;;;;;;;;;;;;;;20.48;38.27;101807.22;5095649;28;1093;-54
2020/12/16 01:16:18;;;;;;;;;;;;;;;20.11;39.28;101805.50;5094989;28;1921;-54
2020/12/16 01:18:44;;;;;;;;;;;;;;;19.93;39.71;101806.00;5096863;28;1027;-54
2020/12/16 01:21:14;;;;;;;;;;;;;;;19.34;41.06;101816.19;5094944;28;1479;-54
2020/12/16 01:23:46;;;;;;;;;;;;;;;20.02;39.55;101809.91;5094984;28;1113;-54
2020/12/16 01:26:12;;;;;;;;;;;;;;;20.64;38.20;101807.22;5096449;28;767;-54
2020/12/16 01:28:45;;;;;;;;;;;;;;;19.99;39.40;101810.41;5095377;28;1200;-54
2020/12/16 01:31:12;;;;;;;;;;;;;;;20.16;39.31;101793.63;5110624;28;1201;-54
2020/12/16 01:33:39;;;;;;;;;;;;;;;19.38;40.74;101806.28;5115732;28;1277;-55
2020/12/16 01:36:14;;;;;;;;;;;;;;;19.48;40.93;101806.34;5101049;28;1993;-54
2020/12/16 01:38:42;;;;;;;;;;;;;;;20.32;38.72;101797.25;5094822;28;1500;-55
2020/12/16 01:41:08;;;;;;;;;;;;;;;20.87;37.72;101799.50;5095589;28;942;-47
2020/12/16 01:43:40;;;;;;;;;;;;;;;20.82;37.81;101801.16;5095043;28;1157;-53
2020/12/16 01:46:12;;;;;;;;;;;;;;;20.34;38.85;101803.31;5098367;28;690;-54
2020/12/16 01:48:39;;;;;;;;;;;;;;;20.07;39.37;101798.84;5100612;28;814;-53
2020/12/16 01:51:04;;;;;;;;;;;;;;;19.46;40.74;101792.00;5100140;28;961;-54
2020/12/16 01:53:30;;;;;;;;;;;;;;;19.66;40.40;101787.66;5099238;28;1473;-54
2020/12/16 01:55:57;;;;;;;;;;;;;;;20.62;38.33;101795.59;5082293;28;1161;-54
2020/12/16 01:58:40;;;;;;;;;;;;;;;20.33;38.72;101794.22;5084436;28;1403;-54
2020/12/16 02:01:06;;;;;;;;;;;;;;;20.16;39.09;101790.84;5098849;28;1232;-54
2020/12/16 02:03:32;;;;;;;;;;;;;;;19.74;39.93;101792.66;5082251;28;1193;-47
2020/12/16 02:06:05;;;;;;;;;;;;;;;19.44;40.93;101787.84;5098966;28;1181;-54
2020/12/16 02:08:31;;;;;;;;;;;;;;;20.20;39.15;101789.22;5098782;28;1217;-54
2020/12/16 02:10:58;;;;;;;;;;;;;;;20.47;38.43;101800.03;5099176;28;804;-52
2020/12/16 02:13:28;;;;;;;;;;;;;;;20.22;38.89;101797.25;5082629;28;1352;-54
2020/12/16 02:15:57;;;;;;;;;;;;;;;20.01;39.45;101797.19;5098630;28;1216;-54
2020/12/16 02:18:24;;;;;;;;;;;;;;;19.49;40.44;101785.94;5098419;28;1209;-53
2020/12/16 02:20:57;;;;;;;;;;;;;;;19.86;39.78;101792.44;5098672;28;1188;-54
2020/12/16 02:23:24;;;;;;;;;;;;;;;20.60;38.42;101793.13;5099586;28;751;-53
2020/12/16 02:25:50;;;;;;;;;;;;;;;20.34;38.89;101789.50;5081668;28;1304;-54
2020/12/16 02:28:15;;;;;;;;;;;;;;;20.15;39.12;101780.94;5081414;28;1311;-53
2020/12/16 02:30:44;;;;;;;;;;;;;;;19.71;40.12;101792.38;5110156;28;1398;-53
2020/12/16 02:33:15;;;;;;;;;;;;;;;19.25;40.91;101792.97;5119883;28;648;-54
2020/12/16 02:35:56;;;;;;;;;;;;;;;20.21;39.23;101790.06;5106987;28;1223;-54
2020/12/16 02:38:32;;;;;;;;;;;;;;;20.47;38.57;101791.75;5098275;28;1193;-54
2020/12/16 02:40:58;;;;;;;;;;;;;;;20.18;39.03;101786.72;5098058;28;1944;-54
2020/12/16 02:43:25;;;;;;;;;;;;;;;19.98;39.35;101798.56;5098160;28;1184;-53
2020/12/16 02:45:53;;;;;;;;;;;;;;;19.37;40.77;101798.28;5097775;28;1346;-53
2020/12/16 02:48:21;;;;;;;;;;;;;;;19.86;39.81;101791.63;5098328;28;1307;-56
2020/12/16 02:50:46;;;;;;;;;;;;;;;20.67;38.12;101790.09;5098683;28;953;-55
2020/12/16 02:53:12;;;;;;;;;;;;;;;20.16;39.16;101782.56;5097922;28;1078;-55
2020/12/16 02:56:03;;;;;;;;;;;;;;;20.10;39.15;101778.16;5098540;28;1979;-55
2020/12/16 02:58:43;;;;;;;;;;;;;;;19.76;39.89;101790.44;5098194;28;1516;-55
2020/12/16 03:01:08;;;;;;;;;;;;;;;19.35;40.86;101795.81;5097515;28;1228;-54
2020/12/16 03:03:55;;;;;;;;;;;;;;;20.42;38.84;101801.97;5098052;28;1212;-52
2020/12/16 03:06:56;;;;;;;;;;;;;;;20.18;39.16;101792.25;5055723;28;1242;-55
2020/12/16 03:09:26;;;;;;;;;;;;;;;20.02;39.35;101790.56;5070123;28;1159;-54
2020/12/16 03:11:55;;;;;;;;;;;;;;;19.68;40.12;101799.25;5078805;28;811;-54
2020/12/16 03:14:26;;;;;;;;;;;;;;;19.40;41.07;101787.53;5093892;28;1176;-56
2020/12/16 03:16:55;;;;;;;;;;;;;;;20.45;38.62;101793.94;5077149;28;1989;-56
2020/12/16 03:19:26;;;;;;;;;;;;;;;20.30;38.75;101791.16;5077388;28;1514;-55
2020/12/16 03:21:52;;;;;;;;;;;;;;;20.12;39.20;101792.53;5095751;28;1221;-56
2020/12/16 03:24:25;;;;;;;;;;;;;;;19.73;40.18;101796.50;5097588;28;1171;-56
2020/12/16 03:27:01;;;;;;;;;;;;;;;19.25;41.02;101795.72;5097467;28;1296;-55
2020/12/16 03:29:59;;;;;;;;;;;;;;;20.30;38.77;101799.44;5080442;28;1188;-54
2020/12/16 03:32:45;;;;;;;;;;;;;;;20.31;38.68;101801.09;5087128;28;1268;-54
2020/12/16 03:35:29;;;;;;;;;;;;;;;20.14;39.12;101802.19;5110547;28;980;-54
2020/12/16 03:37:59;;;;;;;;;;;;;;;19.80;39.80;101802.63;5097264;28;1909;-55
2020/12/16 03:40:29;;;;;;;;;;;;;;;19.39;40.81;101813.47;5097004;28;1350;-55
2020/12/16 03:42:59;;;;;;;;;;;;;;;20.42;38.58;101804.72;5096486;28;1376;-53
2020/12/16 03:45:25;;;;;;;;;;;;;;;20.51;38.43;101808.59;5097160;28;1221;-55
2020/12/16 03:47:51;;;;;;;;;;;;;;;20.25;38.81;101808.56;5096788;28;1192;-54
2020/12/16 03:50:18;;;;;;;;;;;;;;;20.08;39.22;101817.09;5096367;28;1301;-47
2020/12/16 03:52:45;;;;;;;;;;;;;;;19.63;40.38;101813.03;5096966;28;1204;-53
2020/12/16 03:55:36;;;;;;;;;;;;;;;20.06;39.58;101816.50;5095471;28;1003;-55
2020/12/16 03:58:24;;;;;;;;;;;;;;;20.78;37.90;101829.63;5097478;28;1973;-54
2020/12/16 04:01:09;;;;;;;;;;;;;;;20.25;38.86;101818.78;5097872;28;621;-54
2020/12/16 04:03:36;;;;;;;;;;;;;;;20.01;39.54;101827.56;5096349;28;1337;-46
2020/12/16 04:06:20;;;;;;;;;;;;;;;19.59;40.33;101839.50;5096236;28;1141;-51
2020/12/16 04:08:47;;;;;;;;;;;;;;;19.80;40.20;101830.25;5095889;28;1048;-53
2020/12/16 04:11:27;;;;;;;;;;;;;;;20.68;38.26;101839.56;5096518;28;1177;-48
2020/12/16 04:14:00;;;;;;;;;;;;;;;20.09;39.15;101838.06;5096090;28;1323;-45
2020/12/16 04:16:29;;;;;;;;;;;;;;;20.04;39.48;101837.25;5096441;28;1921;-55
2020/12/16 04:19:03;;;;;;;;;;;;;;;19.37;40.96;101847.94;5096219;28;1181;-50
2020/12/16 04:21:29;;;;;;;;;;;;;;;19.78;40.02;101846.22;5097041;28;1004;-56
2020/12/16 04:23:55;;;;;;;;;;;;;;;20.61;38.45;101843.72;5096342;28;1519;-59
2020/12/16 04:26:30;;;;;;;;;;;;;;;20.16;39.36;101848.84;5096338;28;1088;-56
2020/12/16 04:29:03;;;;;;;;;;;;;;;20.14;39.08;101854.63;5096082;28;1381;-59
2020/12/16 04:31:28;;;;;;;;;;;;;;;19.58;40.28;101855.22;5114134;28;1158;-59
2020/12/16 04:33:54;;;;;;;;;;;;;;;19.87;40.03;101854.03;5116633;28;1242;-58
2020/12/16 04:36:20;;;;;;;;;;;;;;;20.61;37.91;101849.22;5101131;28;1917;-48
2020/12/16 04:38:46;;;;;;;;;;;;;;;20.26;39.12;101864.59;5095908;28;1165;-54
2020/12/16 04:41:15;;;;;;;;;;;;;;;20.10;39.25;101861.81;5096200;28;1188;-56
2020/12/16 04:43:48;;;;;;;;;;;;;;;19.48;40.37;101867.03;5096276;28;848;-50
2020/12/16 04:46:17;;;;;;;;;;;;;;;19.59;40.37;101867.09;5095757;28;1449;-55
2020/12/16 04:48:46;;;;;;;;;;;;;;;20.50;38.70;101870.47;5095433;28;792;-56
2020/12/16 04:51:27;;;;;;;;;;;;;;;20.15;39.17;101869.28;5095419;28;1367;-52
2020/12/16 04:53:54;;;;;;;;;;;;;;;20.05;39.36;101874.75;5079278;28;1107;-54
2020/12/16 04:56:26;;;;;;;;;;;;;;;19.71;39.94;101875.97;5095604;28;1917;-55
2020/12/16 04:59:02;;;;;;;;;;;;;;;19.59;40.39;101878.94;5095152;28;1169;-55
2020/12/16 05:01:31;;;;;;;;;;;;;;;20.53;38.48;101880.97;5095478;28;1535;-58
2020/12/16 05:03:58;;;;;;;;;;;;;;;20.37;38.80;101877.38;5094890;28;1212;-51
2020/12/16 05:06:47;;;;;;;;;;;;;;;20.09;39.43;101893.31;5095275;28;1113;-55
2020/12/16 05:09:13;;;;;;;;;;;;;;;19.72;39.93;101894.19;5097175;28;765;-52
2020/12/16 05:11:38;;;;;;;;;;;;;;;19.41;40.66;101891.25;5096310;28;767;-53
2020/12/16 05:14:08;;;;;;;;;;;;;;;19.87;40.04;101890.72;5096780;28;779;-52
2020/12/16 05:16:50;;;;;;;;;;;;;;;20.58;38.29;101885.69;5096558;28;1985;-50
2020/12/16 05:19:26;;;;;;;;;;;;;;;20.21;39.17;101883.94;5095865;28;1044;-55
2020/12/16 05:21:51;;;;;;;;;;;;;;;19.87;39.58;101889.91;5095924;28;1353;-55
2020/12/16 05:24:19;;;;;;;;;;;;;;;19.62;40.19;101891.38;5094855;28;932;-56
2020/12/16 05:26:51;;;;;;;;;;;;;;;19.92;39.64;101887.16;5096504;28;732;-56
2020/12/16 05:29:24;;;;;;;;;;;;;;;20.56;38.46;101876.84;5094814;28;815;-55
2020/12/16 05:31:50;;;;;;;;;;;;;;;20.11;39.40;101880.03;5074987;28;811;-47
2020/12/16 05:34:15;;;;;;;;;;;;;;;20.10;39.41;101889.41;5075682;28;820;-55
2020/12/16 05:36:41;;;;;;;;;;;;;;;19.63;40.13;101893.06;5094117;28;1913;-56
2020/12/16 05:39:06;;;;;;;;;;;;;;;20.04;39.72;101893.28;5096675;28;763;-46
2020/12/16 05:41:32;;;;;;;;;;;;;;;20.72;38.26;101897.06;5094520;28;1353;-53
2020/12/16 05:44:19;;;;;;;;;;;;;;;20.04;39.37;101904.31;5096305;28;811;-54
2020/12/16 05:46:45;;;;;;;;;;;;;;;19.92;39.77;101899.03;5096756;28;759;-55
2020/12/16 05:49:39;;;;;;;;;;;;;;;19.52;40.49;101905.09;5095838;28;510;-54
2020/12/16 05:52:05;;;;;;;;;;;;;;;20.15;39.23;101908.78;5062903;28;1333;-56
2020/12/16 05:54:31;;;;;;;;;;;;;;;20.66;38.28;101912.78;5075821;28;803;-54
2020/12/16 05:57:15;;;;;;;;;;;;;;;20.17;39.05;101908.50;5075631;28;1918;-54
2020/12/16 05:59:41;;;;;;;;;;;;;;;19.87;39.63;101915.56;5076012;28;736;-50
2020/12/16 06:02:07;;;;;;;;;;;;;;;19.49;40.40;101914.75;5076060;28;799;-53
2020/12/16 06:04:32;;;;;;;;;;;;;;;19.93;39.84;101916.41;5075528;28;823;-53
2020/12/16 06:06:58;;;;;;;;;;;;;;;20.70;38.29;101913.94;5095357;28;1005;-54
2020/12/16 06:09:23;;;;;;;;;;;;;;;20.20;39.08;101916.25;5095817;28;755;-55
2020/12/16 06:11:52;;;;;;;;;;;;;;;20.11;39.33;101918.69;5096103;28;763;-55
2020/12/16 06:14:18;;;;;;;;;;;;;;;19.70;40.18;101912.97;5094877;28;795;-53
2020/12/16 06:16:45;;;;;;;;;;;;;;;19.56;40.56;101906.22;5094561;28;1893;-52
2020/12/16 06:19:10;;;;;;;;;;;;;;;20.51;38.69;101911.66;5094476;28;1150;-53
2020/12/16 06:21:35;;;;;;;;;;;;;;;20.25;39.07;101910.75;5094749;28;950;-54
2020/12/16 06:24:02;;;;;;;;;;;;;;;20.09;39.29;101920.91;5095219;28;1009;-53
2020/12/16 06:26:27;;;;;;;;;;;;;;;19.77;40.21;101909.97;5095060;28;810;-60
2020/12/16 06:28:52;;;;;;;;;;;;;;;19.18;41.40;101920.06;5095498;28;789;-59
2020/12/16 06:31:18;;;;;;;;;;;;;;;20.28;39.06;101912.13;5113107;28;1110;-55
2020/12/16 06:33:45;;;;;;;;;;;;;;;20.35;38.79;101923.75;5120188;28;750;-55
2020/12/16 06:36:11;;;;;;;;;;;;;;;19.98;39.46;101919.22;5105413;28;1910;-54
2020/12/16 06:38:39;;;;;;;;;;;;;;;19.98;39.45;101919.22;5099597;28;882;-54
2020/12/16 06:41:06;;;;;;;;;;;;;;;19.36;40.79;101924.31;5099705;28;716;-54
2020/12/16 06:43:31;;;;;;;;;;;;;;;19.86;39.87;101932.41;5098922;28;1439;-55
2020/12/16 06:46:00;;;;;;;;;;;;;;;20.57;38.26;101931.84;5099663;28;755;-54
2020/12/16 06:48:34;;;;;;;;;;;;;;;19.97;39.87;101928.59;5099055;28;786;-52
2020/12/16 06:51:15;;;;;;;;;;;;;;;19.99;39.66;101929.13;5099365;28;1012;-54
2020/12/16 06:53:42;;;;;;;;;;;;;;;19.46;40.54;101926.31;5099565;28;771;-55
2020/12/16 06:56:07;;;;;;;;;;;;;;;19.74;40.30;101938.94;5099052;28;807;-50
2020/12/16 06:58:36;;;;;;;;;;;;;;;20.58;38.44;101939.03;5099403;28;1906;-46
2020/12/16 07:01:14;;;;;;;;;;;;;;;20.17;39.36;101947.16;5099439;28;788;-52
2020/12/16 07:03:40;;;;;;;;;;;;;;;20.14;39.29;101947.72;5098707;28;795;-56
2020/12/16 07:06:09;;;;;;;;;;;;;;;19.64;40.21;101947.13;5098674;28;1087;-57
2020/12/16 07:08:35;;;;;;;;;;;;;;;19.82;39.93;101949.50;5099332;28;743;-52
2020/12/16 07:11:00;;;;;;;;;;;;;;;20.61;38.36;101954.25;5098906;28;779;-47
2020/12/16 07:13:26;;;;;;;;;;;;;;;20.05;39.30;101957.59;5099047;28;843;-52
2020/12/16 07:16:13;;;;;;;;;;;;;;;20.18;39.25;101957.13;5099112;28;811;-54
2020/12/16 07:18:39;;;;;;;;;;;;;;;19.45;40.61;101950.31;5098824;28;1027;-56
2020/12/16 07:21:07;;;;;;;;;;;;;;;19.78;40.05;101959.38;5098581;28;949;-54
2020/12/16 07:23:39;;;;;;;;;;;;;;;20.55;38.65;101952.56;5099044;28;782;-57
2020/12/16 07:26:05;;;;;;;;;;;;;;;20.17;39.06;101952.69;5098234;28;782;-53
2020/12/16 07:28:36;;;;;;;;;;;;;;;20.00;39.78;101958.41;5098677;28;827;-52
2020/12/16 07:31:05;;;;;;;;;;;;;;;19.70;40.22;101959.88;5113091;28;1098;-45
2020/12/16 07:33:31;;;;;;;;;;;;;;;19.55;40.63;101954.25;5118650;28;767;-56
2020/12/16 07:35:56;;;;;;;;;;;;;;;20.45;38.59;101956.13;5107325;28;1008;-46
2020/12/16 07:38:21;;;;;;;;;;;;;;;20.30;38.76;101954.13;5097337;28;1977;-48
2020/12/16 07:40:51;;;;;;;;;;;;;;;20.12;39.47;101949.94;5098931;28;775;-53
2020/12/16 07:43:17;;;;;;;;;;;;;;;19.82;40.06;101955.00;5097204;28;854;-46
2020/12/16 07:45:42;;;;;;;;;;;;;;;19.40;40.74;101958.53;5098468;28;767;-56
2020/12/16 07:48:12;;;;;;;;;;;;;;;20.07;39.48;101949.88;5097971;28;771;-55
2020/12/16 07:50:38;;;;;;;;;;;;;;;20.43;38.78;101953.63;5098069;28;953;-53
2020/12/16 07:53:04;;;;;;;;;;;;;;;20.09;39.42;101965.09;5098398;28;774;-56
2020/12/16 07:55:30;;;;;;;;;;;;;;;20.05;39.35;101971.41;5097535;28;752;-56
2020/12/16 07:57:55;;;;;;;;;;;;;;;19.54;40.75;101977.41;5098212;28;1976;-54
2020/12/16 08:00:21;;;;;;;;;;;;;;;19.22;41.31;101978.25;5098192;28;748;-53
2020/12/16 08:02:49;;;;;;;;;;;;;;;20.28;39.01;101982.00;5097660;28;790;-55
2020/12/16 08:05:15;;;;;;;;;;;;;;;20.82;37.87;101978.09;5097785;28;1001;-54
2020/12/16 08:07:40;;;;;;;;;;;;;;;20.91;37.65;101974.78;5098023;28;794;-54
2020/12/16 08:10:06;;;;;;;;;;;;;;;20.40;38.82;101969.91;5097829;28;778;-54
2020/12/16 08:12:32;;;;;;;;;;;;;;;20.37;38.87;101978.72;5097953;28;794;-53
2020/12/16 08:15:04;;;;;;;;;;;;;;;19.65;40.28;101985.47;5097905;28;795;-53
2020/12/16 08:17:30;;;;;;;;;;;;;;;19.32;41.19;101987.44;5097381;28;1918;-55
2020/12/16 08:20:12;;;;;;;;;;;;;;;20.46;38.95;101991.75;5096267;28;1023;-54
2020/12/16 08:22:37;;;;;;;;;;;;;;;20.44;38.57;101976.53;5097650;28;822;-56
2020/12/16 08:25:08;;;;;;;;;;;;;;;20.32;39.14;101980.38;5097563;28;747;-55
2020/12/16 08:27:44;;;;;;;;;;;;;;;19.95;39.77;101985.97;5097668;28;843;-54
2020/12/16 08:30:11;;;;;;;;;;;;;;;19.23;41.21;101982.69;5104731;28;1081;-49
2020/12/16 08:32:41;;;;;;;;;;;;;;;19.90;40.01;101981.28;5118146;28;799;-56
2020/12/16 08:35:06;;;;;;;;;;;;;;;20.64;38.40;101981.31;5112201;28;996;-56
2020/12/16 08:37:32;;;;;;;;;;;;;;;20.17;39.41;101983.91;5097508;28;1913;-57
2020/12/16 08:39:58;;;;;;;;;;;;;;;20.25;39.17;101978.97;5095992;28;827;-58
2020/12/16 08:42:23;;;;;;;;;;;;;;;19.54;40.41;101977.41;5096184;28;1326;-57
2020/12/16 08:44:49;;;;;;;;;;;;;;;19.35;41.25;101980.59;5097072;28;786;-56
2020/12/16 08:47:24;;;;;;;;;;;;;;;19.99;39.97;101965.88;5097063;28;862;-58
2020/12/16 08:49:50;;;;;;;;;;;;;;;20.61;38.18;101971.66;5096893;28;945;-56
2020/12/16 08:52:16;;;;;;;;;;;;;;;20.23;39.38;101968.19;5097393;28;797;-57
2020/12/16 08:54:42;;;;;;;;;;;;;;;20.04;39.39;101973.34;5096529;28;534;-57
2020/12/16 08:57:07;;;;;;;;;;;;;;;19.61;40.56;101969.72;5097237;28;1914;-54
2020/12/16 08:59:33;;;;;;;;;;;;;;;19.23;41.29;101974.41;5097010;28;803;-55
2020/12/16 09:02:01;;;;;;;;;;;;;;;20.32;39.08;101974.03;5096792;28;779;-54
2020/12/16 09:04:30;;;;;;;;;;;;;;;20.45;38.71;101967.97;5097065;28;751;-56
2020/12/16 09:07:03;;;;;;;;;;;;;;;20.21;39.27;101972.31;5096721;28;949;-52
2020/12/16 09:09:28;;;;;;;;;;;;;;;20.03;39.58;101966.16;5097047;28;740;-56
2020/12/16 09:11:54;;;;;;;;;;;;;;;19.33;41.19;101963.44;5096683;28;811;-55
2020/12/16 09:14:19;;;;;;;;;;;;;;;19.48;40.81;101965.50;5097103;28;843;-56
2020/12/16 09:16:45;;;;;;;;;;;;;;;20.45;38.78;101958.88;5096538;28;1913;-56
2020/12/16 09:19:17;;;;;;;;;;;;;;;20.26;38.98;101958.50;5096572;28;1024;-56
2020/12/16 09:21:42;;;;;;;;;;;;;;;20.06;39.47;101960.09;5096710;28;957;-56
2020/12/16 09:24:08;;;;;;;;;;;;;;;19.73;40.06;101956.56;5096606;28;799;-56
2020/12/16 09:26:37;;;;;;;;;;;;;;;19.29;41.35;101956.78;5096485;28;827;-57
2020/12/16 09:29:12;;;;;;;;;;;;;;;20.35;39.07;101956.91;5096740;28;882;-56
2020/12/16 09:31:38;;;;;;;;;;;;;;;20.44;38.58;101954.44;5115669;28;1225;-57
2020/12/16 09:34:04;;;;;;;;;;;;;;;20.08;39.61;101952.38;5117144;28;787;-56
2020/12/16 09:36:30;;;;;;;;;;;;;;;19.99;39.66;101953.97;5100675;28;1978;-57
2020/12/16 09:38:59;;;;;;;;;;;;;;;19.57;40.42;101946.53;5096270;28;751;-54
2020/12/16 09:41:25;;;;;;;;;;;;;;;20.20;39.24;101945.81;5096512;28;815;-54
2020/12/16 09:43:50;;;;;;;;;;;;;;;20.58;38.25;101950.09;5096543;28;826;-55
2020/12/16 09:46:22;;;;;;;;;;;;;;;20.17;39.37;101945.25;5096182;28;782;-53
2020/12/16 09:48:48;;;;;;;;;;;;;;;20.21;39.11;101944.72;5096380;28;751;-54
2020/12/16 09:51:14;;;;;;;;;;;;;;;19.54;40.58;101939.59;5096316;28;977;-54
2020/12/16 09:53:40;;;;;;;;;;;;;;;19.63;40.54;101929.75;5096000;28;833;-53
2020/12/16 09:56:05;;;;;;;;;;;;;;;20.57;38.64;101933.78;5096506;28;794;-55
2020/12/16 09:58:37;;;;;;;;;;;;;;;20.10;39.35;101944.66;5096416;28;1910;-54
2020/12/16 10:01:03;;;;;;;;;;;;;;;20.06;39.41;101938.00;5096293;28;755;-54
2020/12/16 10:03:28;;;;;;;;;;;;;;;19.74;40.03;101941.69;5096374;28;783;-54
2020/12/16 10:05:54;;;;;;;;;;;;;;;19.43;40.92;101927.69;5096315;28;1009;-53
2020/12/16 10:08:19;;;;;;;;;;;;;;;20.45;38.83;101934.00;5099822;28;779;-50
2020/12/16 10:10:45;;;;;;;;;;;;;;;20.35;38.71;101932.03;5100334;28;814;-54
2020/12/16 10:13:14;;;;;;;;;;;;;;;20.10;39.48;101927.25;5100569;28;787;-51
2020/12/16 10:15:40;;;;;;;;;;;;;;;19.80;39.95;101923.25;5099690;28;751;-54
2020/12/16 10:18:05;;;;;;;;;;;;;;;19.12;41.36;101919.16;5100075;28;1968;-52
2020/12/16 10:20:30;;;;;;;;;;;;;;;20.26;39.12;101914.31;5099629;28;1126;-55
2020/12/16 10:22:56;;;;;;;;;;;;;;;20.49;38.48;101922.13;5099908;28;779;-54
2020/12/16 10:25:22;;;;;;;;;;;;;;;20.39;38.79;101913.00;5100092;28;743;-50
2020/12/16 10:27:47;;;;;;;;;;;;;;;19.93;39.84;101916.41;5099893;28;842;-51
2020/12/16 10:30:13;;;;;;;;;;;;;;;19.46;40.64;101907.84;5106900;28;1152;-51
2020/12/16 10:32:39;;;;;;;;;;;;;;;19.79;40.11;101905.84;5120280;28;743;-54
2020/12/16 10:35:05;;;;;;;;;;;;;;;20.60;38.61;101913.88;5115914;28;1010;-53
2020/12/16 10:37:30;;;;;;;;;;;;;;;20.25;39.11;101912.69;5099151;28;1973;-49
2020/12/16 10:39:55;;;;;;;;;;;;;;;20.18;39.38;101905.47;5099799;28;875;-48
2020/12/16 10:42:21;;;;;;;;;;;;;;;19.76;40.12;101900.03;5099601;28;823;-46
2020/12/16 10:44:46;;;;;;;;;;;;;;;19.26;41.21;101907.69;5099219;28;755;-46
2020/12/16 10:47:12;;;;;;;;;;;;;;;20.09;39.48;101898.81;5099591;28;779;-52
2020/12/16 10:49:39;;;;;;;;;;;;;;;20.51;38.63;101888.72;5099194;28;973;-53
2020/12/16 10:52:05;;;;;;;;;;;;;;;20.16;39.19;101890.25;5099477;28;771;-47
2020/12/16 10:54:31;;;;;;;;;;;;;;;19.89;39.95;101893.22;5099423;28;838;-46
2020/12/16 10:56:56;;;;;;;;;;;;;;;19.39;40.87;101890.69;5099379;28;1966;-47
2020/12/16 10:59:22;;;;;;;;;;;;;;;19.93;39.84;101888.81;5099164;28;827;-45
2020/12/16 11:01:47;;;;;;;;;;;;;;;20.75;38.23;101880.78;5099319;28;516;-46
2020/12/16 11:04:13;;;;;;;;;;;;;;;20.30;39.25;101887.81;5099072;28;727;-49
2020/12/16 11:06:43;;;;;;;;;;;;;;;20.24;39.28;101880.63;5098717;28;957;-55
2020/12/16 11:09:09;;;;;;;;;;;;;;;19.61;40.36;101884.19;5098070;28;804;-52
2020/12/16 11:11:39;;;;;;;;;;;;;;;19.24;41.11;101883.16;5098929;28;771;-51
2020/12/16 11:14:04;;;;;;;;;;;;;;;20.13;39.38;101872.34;5098842;28;827;-50
2020/12/16 11:16:30;;;;;;;;;;;;;;;20.38;38.89;101872.66;5098907;28;1886;-52
2020/12/16 11:18:55;;;;;;;;;;;;;;;20.15;39.42;101875.63;5096736;28;1011;-48
2020/12/16 11:21:21;;;;;;;;;;;;;;;19.91;39.98;101880.81;5098999;28;965;-48
2020/12/16 11:23:46;;;;;;;;;;;;;;;19.34;41.07;101871.34;5098830;28;846;-54
2020/12/16 11:26:12;;;;;;;;;;;;;;;19.83;40.13;101873.03;5099004;28;796;-47
2020/12/16 11:28:59;;;;;;;;;;;;;;;20.65;38.34;101867.75;5098622;28;524;-51
2020/12/16 11:31:26;;;;;;;;;;;;;;;20.17;39.32;101865.16;5116174;28;1158;-53
2020/12/16 11:33:51;;;;;;;;;;;;;;;20.03;39.39;101865.94;5119248;28;767;-52
2020/12/16 11:36:17;;;;;;;;;;;;;;;19.53;40.58;101869.00;5104971;28;961;-54
2020/12/16 11:38:42;;;;;;;;;;;;;;;19.59;40.57;101861.56;5098433;28;1976;-47
2020/12/16 11:41:07;;;;;;;;;;;;;;;20.54;38.64;101852.25;5098504;28;783;-54
2020/12/16 11:43:33;;;;;;;;;;;;;;;20.22;39.21;101858.00;5098275;28;755;-54
2020/12/16 11:45:58;;;;;;;;;;;;;;;20.02;39.70;101856.00;5098377;28;774;-55
2020/12/16 11:48:24;;;;;;;;;;;;;;;19.75;40.18;101859.72;5098347;28;775;-55
2020/12/16 11:50:49;;;;;;;;;;;;;;;19.32;41.46;101856.97;5098409;28;953;-55
2020/12/16 11:53:15;;;;;;;;;;;;;;;20.46;38.85;101853.63;5098021;28;794;-55
2020/12/16 11:55:40;;;;;;;;;;;;;;;20.28;39.09;101857.72;5098861;28;822;-55
2020/12/16 11:58:06;;;;;;;;;;;;;;;20.04;39.65;101862.91;5098152;28;1913;-55
2020/12/16 12:00:31;;;;;;;;;;;;;;;19.82;39.99;101872.22;5098016;28;810;-55
2020/12/16 12:02:57;;;;;;;;;;;;;;;19.12;41.75;101866.78;5098145;28;699;-55
2020/12/16 12:05:22;;;;;;;;;;;;;;;20.18;39.49;101868.75;5097765;28;961;-55
2020/12/16 12:07:47;;;;;;;;;;;;;;;20.62;38.28;101868.31;5097586;28;754;-54
2020/12/16 12:10:13;;;;;;;;;;;;;;;20.17;39.26;101872.59;5098388;28;795;-56
2020/12/16 12:12:38;;;;;;;;;;;;;;;19.81;40.10;101873.31;5097883;28;803;-56
2020/12/16 12:15:04;;;;;;;;;;;;;;;19.43;40.82;101869.75;5097727;28;787;-50
2020/12/16 12:17:29;;;;;;;;;;;;;;;20.31;39.06;101878.44;5096446;28;1914;-55
2020/12/16 12:19:55;;;;;;;;;;;;;;;20.69;38.24;101868.03;5097345;28;1031;-53
2020/12/16 12:22:20;;;;;;;;;;;;;;;20.12;39.38;101872.59;5097474;28;727;-53
2020/12/16 12:24:46;;;;;;;;;;;;;;;20.03;39.68;101869.50;5097693;28;743;-50
2020/12/16 12:27:11;;;;;;;;;;;;;;;19.70;40.61;101876.25;5097796;28;771;-56
2020/12/16 12:29:36;;;;;;;;;;;;;;;19.23;41.44;101869.63;5098938;28;1140;-54
2020/12/16 12:32:02;;;;;;;;;;;;;;;19.98;39.97;101869.53;5118007;28;830;-55
2020/12/16 12:34:27;;;;;;;;;;;;;;;20.64;38.29;101876.31;5117901;28;793;-55
2020/12/16 12:36:53;;;;;;;;;;;;;;;20.11;39.40;101868.19;5098410;28;1921;-55
2020/12/16 12:39:18;;;;;;;;;;;;;;;20.22;39.16;101874.56;5097475;28;787;-55
2020/12/16 12:41:43;;;;;;;;;;;;;;;19.36;40.88;101880.19;5097192;28;815;-54
2020/12/16 12:44:11;;;;;;;;;;;;;;;19.85;40.31;101884.63;5097084;28;866;-47
2020/12/16 12:46:36;;;;;;;;;;;;;;;20.66;38.35;101885.16;5097335;28;831;-56
2020/12/16 12:49:02;;;;;;;;;;;;;;;20.17;39.46;101883.66;5097320;28;795;-55
2020/12/16 12:51:28;;;;;;;;;;;;;;;20.10;39.64;101878.38;5096778;28;961;-55
2020/12/16 12:53:54;;;;;;;;;;;;;;;19.63;40.37;101882.03;5097358;28;714;-55
2020/12/16 12:56:19;;;;;;;;;;;;;;;19.77;40.51;101885.94;5097121;28;751;-54
2020/12/16 12:58:45;;;;;;;;;;;;;;;20.64;38.35;101876.31;5097137;28;1902;-55